createdAt,value
2019-04-04T00:00:04.907Z,54.5
2019-04-04T00:15:04.344Z,54.6
2019-04-04T00:30:04.542Z,54.7
2019-04-04T00:45:04.469Z,55
2019-04-04T01:00:04.921Z,55.1
2019-04-04T01:15:04.745Z,55.2
2019-04-04T01:30:04.307Z,55.5
2019-04-04T01:45:04.081Z,55.4
2019-04-04T02:00:04.956Z,55.6
2019-04-04T02:15:04.312Z,55.9
2019-04-04T02:30:04.876Z,56.2
2019-04-04T02:45:06.674Z,56.7
2019-04-04T03:00:05.113Z,56.7
2019-04-04T03:15:13.750Z,57
2019-04-04T03:30:05.092Z,56.9
2019-04-04T03:45:04.977Z,57.3
2019-04-04T04:00:07.644Z,57.5
2019-04-04T04:15:05.009Z,57.5
2019-04-04T04:30:07.695Z,57.3
2019-04-04T04:45:12.072Z,57.7
2019-04-04T05:00:05.089Z,57.6
2019-04-04T05:15:04.855Z,57.7
2019-04-04T05:30:04.423Z,57.7
2019-04-04T05:45:04.821Z,57.7
2019-04-04T06:00:04.661Z,57.5
2019-04-04T06:15:04.945Z,57.5
2019-04-04T06:30:04.552Z,57.5
2019-04-04T06:45:04.783Z,57.7
2019-04-04T07:00:04.271Z,58.1
2019-04-04T07:15:05.059Z,57.8
2019-04-04T07:30:04.946Z,58
2019-04-04T07:45:04.723Z,57.9
2019-04-04T08:00:05.057Z,57.9
2019-04-04T08:15:04.835Z,58.3
2019-04-04T08:30:04.872Z,58
2019-04-04T08:45:04.658Z,58.2
2019-04-04T09:00:04.975Z,58.2
2019-04-04T09:15:04.219Z,58.7
2019-04-04T09:30:04.185Z,58.9
2019-04-04T09:45:04.706Z,59
2019-04-04T10:00:05.098Z,58.8
2019-04-04T10:15:04.538Z,59.1
2019-04-04T10:30:05.008Z,59.3
2019-04-04T10:45:04.305Z,59.8
2019-04-04T11:00:04.662Z,59.5
2019-04-04T11:15:04.511Z,59.3
2019-04-04T11:30:09.916Z,58.6
2019-04-04T11:45:04.834Z,60.4
2019-04-04T12:00:04.832Z,60.2
2019-04-04T12:15:04.175Z,60.5
2019-04-04T12:30:04.173Z,60.4
2019-04-04T12:45:05.632Z,60.9
2019-04-04T13:00:05.003Z,60.3
2019-04-04T13:15:04.778Z,60.4
2019-04-04T13:30:04.178Z,60.4
2019-04-04T13:45:04.418Z,61.1
2019-04-04T14:00:04.190Z,60.4
2019-04-04T14:15:04.543Z,60.7
2019-04-04T14:45:06.747Z,61
2019-04-04T15:00:04.544Z,61
2019-04-04T15:15:04.827Z,61
2019-04-04T15:30:04.784Z,61.3
2019-04-04T15:45:04.493Z,61.2
2019-04-04T16:00:05.068Z,61.6
2019-04-04T16:15:04.354Z,61.6
2019-04-04T16:30:04.364Z,61.8
2019-04-04T16:45:04.218Z,61.8
2019-04-04T17:00:16.066Z,61.5
2019-04-04T17:15:04.400Z,62
2019-04-04T17:30:05.142Z,62
2019-04-04T17:45:04.986Z,62
2019-04-04T18:00:04.749Z,62.6
2019-04-04T18:15:04.528Z,62
2019-04-04T18:30:04.513Z,62.1
2019-04-04T18:45:04.825Z,62.4
2019-04-04T19:00:04.129Z,62.5
2019-04-04T19:15:08.039Z,62.5
2019-04-04T19:30:04.147Z,62.7
2019-04-04T19:45:04.973Z,62.9
2019-04-04T20:00:04.254Z,62.9
2019-04-04T20:15:04.561Z,63.1
2019-04-04T20:30:04.527Z,63
2019-04-04T20:45:04.829Z,63
2019-04-04T21:00:04.160Z,62.9
2019-04-04T21:15:04.443Z,63.1
2019-04-04T21:30:04.427Z,63.4
2019-04-04T21:45:04.227Z,63.8
2019-04-04T22:00:04.453Z,63.7
2019-04-04T22:15:04.291Z,63.5
2019-04-04T22:30:04.450Z,63.5
2019-04-04T22:45:04.235Z,63.7
2019-04-04T23:00:04.540Z,63.8
2019-04-04T23:15:04.790Z,63.8
2019-04-04T23:30:04.915Z,63.9
2019-04-04T23:45:04.669Z,64.1
